Time;durP1;ratioP1;P1;durP2;ratioP2;P2;SDS_P1;SDS_P2;PMS_P1;PMS_P2;Temp;Humidity;BMP_temperature;BMP_pressure;BME280_temperature;BME280_humidity;BME280_pressure;Samples;Min_cycle;Max_cycle;Signal;HPM_P1;HPM_P2
2021/10/28 02:47:52;;;;;;;5.25;4.63;;;6.90;99.90;;;;;;7380077;19;20373;-80
2021/10/28 02:50:19;;;;;;;7.07;4.85;;;6.90;99.90;;;;;;7378568;19;20352;-79
2021/10/28 02:52:44;;;;;;;5.10;4.28;;;6.90;99.90;;;;;;7381722;19;20404;-80
2021/10/28 02:55:10;;;;;;;5.30;4.80;;;6.90;99.90;;;;;;7383979;19;20338;-80
2021/10/28 02:57:40;;;;;;;5.72;4.90;;;6.80;99.90;;;;;;7376969;19;20340;-79
2021/10/28 03:00:07;;;;;;;4.93;4.43;;;6.70;99.90;;;;;;7376723;19;20315;-79
2021/10/28 03:02:33;;;;;;;6.25;5.05;;;6.70;99.90;;;;;;7376079;19;20313;-80
2021/10/28 03:04:58;;;;;;;4.78;4.30;;;6.70;99.90;;;;;;7374904;19;20317;-80
2021/10/28 03:07:24;;;;;;;4.90;4.40;;;6.70;99.90;;;;;;7372515;19;20328;-80
2021/10/28 03:09:50;;;;;;;4.73;4.30;;;6.70;99.90;;;;;;7365234;19;20308;-80
2021/10/28 03:12:16;;;;;;;5.15;4.38;;;6.70;99.90;;;;;;7374398;19;20399;-80
2021/10/28 03:15:02;;;;;;;5.03;4.53;;;6.70;99.90;;;;;;7372479;19;20329;-80
2021/10/28 03:17:35;;;;;;;4.63;4.15;;;6.60;99.90;;;;;;7272639;19;2005858;-80
2021/10/28 03:27:43;;;;;;;4.93;4.43;;;6.40;99.90;;;;;;7372729;19;20317;-79
2021/10/28 03:30:10;;;;;;;4.82;4.32;;;6.40;99.90;;;;;;7374646;19;20332;-80
2021/10/28 03:32:36;;;;;;;4.72;4.32;;;6.40;99.90;;;;;;7376143;19;20312;-79
2021/10/28 03:35:03;;;;;;;5.25;4.70;;;6.30;99.90;;;;;;7372484;19;20301;-80
2021/10/28 03:37:32;;;;;;;5.28;4.78;;;6.30;99.90;;;;;;7378765;19;20396;-79
2021/10/28 03:48:14;;;;;;;5.13;4.63;;;6.10;99.90;;;;;;7277444;19;2004600;-80
2021/10/28 04:29:05;;;;;;;4.93;4.47;;;5.70;99.90;;;;;;7364676;19;20363;-80
2021/10/28 04:31:35;;;;;;;5.50;4.28;;;5.70;99.90;;;;;;7366463;19;20309;-81
2021/10/28 04:37:44;;;;;;;8.75;6.28;;;5.60;99.90;;;;;;7318768;19;20301;-80
2021/10/28 04:40:14;;;;;;;6.85;6.15;;;5.50;99.90;;;;;;7242975;19;2004602;-81
2021/10/28 04:42:40;;;;;;;6.72;5.85;;;5.40;99.90;;;;;;7373678;19;20324;-79
2021/10/28 04:45:07;;;;;;;8.57;7.03;;;5.30;99.90;;;;;;7346782;19;20858;-80
2021/10/28 04:47:34;;;;;;;5.35;4.75;;;5.30;99.90;;;;;;7383947;19;20304;-80
2021/10/28 04:50:04;;;;;;;6.03;5.00;;;5.30;99.90;;;;;;7344737;19;20407;-82
2021/10/28 04:55:02;;;;;;;8.05;5.72;;;5.30;99.90;;;;;;7389460;19;20332;-80
2021/10/28 04:57:31;;;;;;;5.47;4.97;;;5.20;99.90;;;;;;7394461;19;20893;-81
2021/10/28 04:59:59;;;;;;;6.22;5.63;;;5.40;99.90;;;;;;7372679;19;20325;-80
2021/10/28 05:11:38;;;;;;;5.03;4.53;;;5.30;99.90;;;;;;7368929;19;20328;-79
2021/10/28 05:14:15;;;;;;;4.15;3.72;;;5.30;99.90;;;;;;7337202;19;20313;-80
2021/10/28 05:16:45;;;;;;;4.60;4.13;;;5.30;99.90;;;;;;7331059;19;20340;-81
2021/10/28 05:19:17;;;;;;;4.00;3.70;;;5.30;99.90;;;;;;7356442;19;20317;-81
2021/10/28 05:21:47;;;;;;;4.45;4.05;;;5.30;99.90;;;;;;7357842;19;20404;-80
2021/10/28 05:24:13;;;;;;;4.00;3.45;;;5.30;99.90;;;;;;7358608;19;20332;-80
2021/10/28 05:26:43;;;;;;;4.13;3.72;;;5.20;99.90;;;;;;7375989;19;20320;-80
2021/10/28 05:29:09;;;;;;;4.50;3.40;;;5.10;99.90;;;;;;7372114;19;20868;-80
2021/10/28 05:31:35;;;;;;;4.13;3.45;;;5.10;99.90;;;;;;7375733;19;20321;-80
2021/10/28 05:34:01;;;;;;;4.33;3.90;;;5.10;99.90;;;;;;7366601;19;20352;-81
2021/10/28 05:36:26;;;;;;;4.47;3.37;;;5.00;99.90;;;;;;7388428;19;20321;-80
2021/10/28 05:38:53;;;;;;;3.30;3.03;;;5.00;99.90;;;;;;7375993;19;20331;-79
2021/10/28 05:41:19;;;;;;;3.33;3.03;;;5.00;99.90;;;;;;7356691;19;20321;-80
2021/10/28 05:43:44;;;;;;;4.72;3.55;;;5.00;99.90;;;;;;7375643;19;20348;-80
2021/10/28 05:46:10;;;;;;;3.40;3.10;;;4.90;99.90;;;;;;7370107;19;20324;-79
2021/10/28 05:48:36;;;;;;;3.22;2.92;;;5.00;99.90;;;;;;7373111;19;21322;-80
2021/10/28 05:51:05;;;;;;;3.37;3.07;;;4.90;99.90;;;;;;7373322;19;21381;-80
2021/10/28 05:53:31;;;;;;;3.38;3.08;;;5.00;99.90;;;;;;7350927;19;20372;-80
2021/10/28 05:55:57;;;;;;;3.22;2.97;;;5.00;99.90;;;;;;7370820;19;20324;-80
2021/10/28 05:58:23;;;;;;;3.70;2.92;;;5.00;99.90;;;;;;7374855;19;20301;-80
2021/10/28 06:00:52;;;;;;;3.13;2.88;;;4.80;99.90;;;;;;7373602;19;20316;-80
2021/10/28 06:03:20;;;;;;;3.70;3.30;;;4.80;99.90;;;;;;7374518;19;20325;-80
2021/10/28 06:05:47;;;;;;;4.82;4.20;;;4.80;99.90;;;;;;7374456;19;20325;-79
2021/10/28 06:08:12;;;;;;;4.75;3.90;;;4.80;99.90;;;;;;7375290;19;20317;-80
2021/10/28 06:10:38;;;;;;;4.03;3.65;;;4.80;99.90;;;;;;7372369;19;20313;-80
2021/10/28 06:13:07;;;;;;;4.03;3.63;;;4.80;99.90;;;;;;7374215;19;20740;-80
2021/10/28 06:15:35;;;;;;;4.93;4.27;;;4.80;99.90;;;;;;7374431;19;20329;-80
2021/10/28 06:18:13;;;;;;;3.97;3.57;;;4.80;99.90;;;;;;7376556;19;20321;-80
2021/10/28 06:20:40;;;;;;;4.07;3.78;;;4.80;99.90;;;;;;7373553;19;20340;-80
2021/10/28 06:23:06;;;;;;;4.57;3.83;;;4.70;99.90;;;;;;7382569;19;20366;-79
2021/10/28 06:25:31;;;;;;;3.90;3.60;;;4.70;99.90;;;;;;7374332;19;20319;-80
2021/10/28 06:27:57;;;;;;;3.95;3.50;;;4.70;99.90;;;;;;7376582;19;20321;-81
2021/10/28 06:30:24;;;;;;;4.90;3.80;;;4.70;99.90;;;;;;7380965;19;20300;-79
2021/10/28 06:32:54;;;;;;;4.00;3.60;;;4.70;99.90;;;;;;7378025;19;20902;-80
2021/10/28 06:35:21;;;;;;;3.60;3.30;;;4.70;99.90;;;;;;7375099;19;20313;-79
2021/10/28 06:37:49;;;;;;;4.45;3.20;;;4.80;99.90;;;;;;7377230;19;20814;-80
2021/10/28 06:40:16;;;;;;;3.55;3.25;;;4.80;99.90;;;;;;7378772;19;20701;-80
2021/10/28 06:42:43;;;;;;;3.72;3.35;;;4.80;99.90;;;;;;7377483;19;20348;-80
2021/10/28 06:45:10;;;;;;;4.65;4.20;;;4.80;99.90;;;;;;7375633;19;20308;-79
2021/10/28 06:47:35;;;;;;;4.60;4.20;;;4.70;99.90;;;;;;7379265;19;20425;-79
2021/10/28 06:50:06;;;;;;;6.30;4.50;;;4.80;99.90;;;;;;7375772;19;20392;-80
2021/10/28 06:52:47;;;;;;;4.33;3.93;;;4.80;99.90;;;;;;7379776;19;20358;-80
2021/10/28 06:55:14;;;;;;;4.85;4.40;;;4.90;99.90;;;;;;7275608;19;2004449;-80
2021/10/28 06:58:00;;;;;;;4.80;4.30;;;4.90;99.90;;;;;;7381664;19;20313;-80
2021/10/28 07:03:11;;;;;;;5.45;4.80;;;4.90;99.90;;;;;;7275603;19;2006432;-80
2021/10/28 07:05:40;;;;;;;4.93;4.43;;;4.90;99.90;;;;;;7380379;19;21321;-80
2021/10/28 07:08:07;;;;;;;5.05;4.53;;;5.00;99.90;;;;;;7382283;19;20316;-81
2021/10/28 07:10:34;;;;;;;6.07;5.27;;;5.00;99.90;;;;;;7372368;19;21402;-80
2021/10/28 07:13:05;;;;;;;8.95;5.95;;;5.00;99.90;;;;;;7381366;19;20307;-80
2021/10/28 07:15:41;;;;;;;6.32;5.70;;;5.10;99.90;;;;;;7315376;19;20370;-80
2021/10/28 07:34:30;;;;;;;7.63;6.93;;;5.50;99.90;;;;;;7354135;19;20313;-79
2021/10/28 08:17:55;;;;;;;14.27;11.68;;;7.30;99.90;;;;;;7373959;19;20326;-79
2021/10/28 08:20:43;;;;;;;12.95;9.85;;;7.30;99.90;;;;;;7267112;19;2004518;-80
2021/10/28 08:23:17;;;;;;;12.98;11.50;;;7.50;99.90;;;;;;7372767;19;20317;-80
2021/10/28 08:31:25;;;;;;;12.93;11.50;;;7.90;99.90;;;;;;7278314;19;2006375;-80
2021/10/28 08:33:51;;;;;;;13.82;10.98;;;8.00;99.90;;;;;;7380291;19;20329;-79
2021/10/28 08:36:28;;;;;;;12.47;11.17;;;8.10;99.90;;;;;;7379792;19;20343;-79
2021/10/28 08:38:54;;;;;;;14.83;12.20;;;8.20;99.90;;;;;;7380817;19;20324;-80
2021/10/28 08:41:20;;;;;;;11.82;10.52;;;8.30;99.90;;;;;;7378991;19;20419;-80
2021/10/28 08:43:46;;;;;;;13.15;11.75;;;8.40;99.90;;;;;;7379684;19;20349;-80
2021/10/28 08:46:13;;;;;;;13.13;11.38;;;8.40;99.90;;;;;;7379043;19;20400;-80
2021/10/28 08:48:42;;;;;;;15.77;11.70;;;8.50;99.90;;;;;;7379482;19;20316;-79
2021/10/28 08:51:14;;;;;;;11.45;10.18;;;8.70;99.90;;;;;;7380544;19;20720;-79
2021/10/28 09:24:37;;;;;;;11.38;10.02;;;10.20;99.90;;;;;;7288013;19;2004410;-83
2021/10/28 09:28:17;;;;;;;12.18;10.43;;;10.40;99.90;;;;;;7209116;19;2005012;-85
2021/10/28 10:08:23;;;;;;;6.53;5.85;;;12.50;99.90;;;;;;7406836;19;20352;-82
2021/10/28 11:29:01;;;;;;;4.57;3.57;;;17.50;99.90;;;;;;7291103;19;2004424;-81
2021/10/28 12:46:14;;;;;;;1.90;1.80;;;17.30;99.90;;;;;;7399839;19;20320;-81
2021/10/28 12:49:27;;;;;;;2.00;1.80;;;17.30;99.90;;;;;;7402828;19;20857;-81
2021/10/28 13:06:50;;;;;;;1.23;1.20;;;17.00;99.90;;;;;;7298775;19;2007219;-87
2021/10/28 13:53:02;;;;;;;0.93;0.93;;;16.40;99.90;;;;;;7302996;19;2004361;-88
2021/10/28 13:58:24;;;;;;;2.22;1.20;;;16.40;99.90;;;;;;7404769;19;20352;-87
2021/10/28 14:14:41;;;;;;;1.20;1.10;;;16.40;99.90;;;;;;7402441;19;20307;-87
2021/10/28 14:36:36;;;;;;;1.25;1.15;;;16.00;99.90;;;;;;7405432;19;20742;-89
2021/10/28 15:27:46;;;;;;;1.17;1.10;;;14.90;99.90;;;;;;7299312;19;2004302;-91
2021/10/28 15:35:40;;;;;;;1.00;1.00;;;14.60;99.90;;;;;;7299592;19;2004401;-88
2021/10/28 15:49:51;;;;;;;1.27;1.17;;;14.10;99.90;;;;;;7405395;19;20323;-88
2021/10/28 16:22:20;;;;;;;1.63;1.35;;;12.70;99.90;;;;;;7417789;19;20316;-88
2021/10/28 16:24:46;;;;;;;1.00;1.00;;;12.70;99.90;;;;;;7418849;19;20312;-88
2021/10/28 16:27:12;;;;;;;0.98;0.98;;;12.50;99.90;;;;;;7418884;19;20333;-88
2021/10/28 16:29:37;;;;;;;1.00;1.00;;;12.40;99.90;;;;;;7416912;19;20420;-89
2021/10/28 16:32:25;;;;;;;1.35;1.25;;;12.30;99.90;;;;;;7417805;19;20321;-87
2021/10/28 16:39:32;;;;;;;1.10;1.10;;;12.20;99.90;;;;;;7366908;19;20314;-85
2021/10/28 16:46:02;;;;;;;1.50;1.40;;;12.00;99.90;;;;;;7284348;19;2004315;-88
2021/10/28 16:48:28;;;;;;;2.00;1.80;;;12.00;99.90;;;;;;7416146;19;20329;-89
2021/10/28 16:50:54;;;;;;;3.40;2.83;;;11.90;99.90;;;;;;7424302;19;20307;-89
2021/10/28 16:53:23;;;;;;;3.88;2.70;;;11.80;99.90;;;;;;7419014;19;20376;-90
2021/10/28 16:55:49;;;;;;;2.63;2.42;;;11.80;99.90;;;;;;7421235;19;20324;-90
2021/10/28 16:58:15;;;;;;;1.60;1.50;;;11.90;99.90;;;;;;7424052;19;20333;-90
2021/10/28 17:00:41;;;;;;;2.03;1.83;;;11.60;99.90;;;;;;7425050;19;20357;-90
2021/10/28 19:23:10;;;;;;;5.85;5.35;;;11.00;99.90;;;;;;7378249;19;20309;-78
2021/10/28 19:25:37;;;;;;;6.55;5.90;;;11.00;99.90;;;;;;7387434;19;20416;-86
2021/10/28 19:40:08;;;;;;;7.00;5.35;;;10.70;99.90;;;;;;7381667;19;20886;-79
2021/10/28 19:52:16;;;;;;;6.50;5.90;;;10.50;99.90;;;;;;7413352;19;20356;-87
2021/10/28 19:54:42;;;;;;;6.50;5.88;;;10.50;99.90;;;;;;7404698;19;20339;-84
2021/10/28 19:57:15;;;;;;;6.70;5.75;;;10.50;99.90;;;;;;7386150;19;20316;-79
2021/10/28 19:59:45;;;;;;;6.32;5.47;;;10.50;99.90;;;;;;7401213;19;20336;-86
2021/10/28 20:02:19;;;;;;;7.30;6.00;;;10.40;99.90;;;;;;7410728;19;20404;-89
2021/10/28 20:13:22;;;;;;;7.35;6.03;;;10.40;99.90;;;;;;7303440;19;2004439;-85
2021/10/28 20:21:18;;;;;;;5.47;4.83;;;10.30;99.90;;;;;;7399830;19;20339;-87
2021/10/28 20:23:44;;;;;;;5.70;5.13;;;10.20;99.90;;;;;;7401904;19;20316;-84
2021/10/28 20:26:09;;;;;;;7.15;6.28;;;10.10;99.90;;;;;;7408633;19;20325;-85
2021/10/28 20:28:40;;;;;;;7.17;5.90;;;10.10;99.90;;;;;;7414566;19;20339;-85
2021/10/28 20:31:09;;;;;;;6.22;5.32;;;10.10;99.90;;;;;;7395574;19;20376;-87
2021/10/28 20:33:42;;;;;;;7.47;6.70;;;10.10;99.90;;;;;;7413145;19;20415;-86
2021/10/28 20:39:04;;;;;;;9.93;6.20;;;10.10;99.90;;;;;;7311187;19;2004713;-83
2021/10/28 20:41:30;;;;;;;6.78;5.97;;;10.00;99.90;;;;;;7404655;19;20336;-86
2021/10/28 20:43:57;;;;;;;6.43;5.78;;;10.10;99.90;;;;;;7418990;19;20341;-87
2021/10/28 20:52:14;;;;;;;6.00;5.40;;;9.80;99.90;;;;;;7360215;19;20894;-81
2021/10/28 20:54:46;;;;;;;6.82;5.43;;;9.70;99.90;;;;;;7389789;19;20379;-80
2021/10/28 20:57:13;;;;;;;8.45;6.45;;;9.60;99.90;;;;;;7233086;19;2004331;-80
2021/10/28 20:59:54;;;;;;;8.45;7.00;;;9.60;99.90;;;;;;7377670;19;20345;-81
2021/10/28 21:02:48;;;;;;;6.03;5.43;;;9.60;99.90;;;;;;7378145;19;20357;-80
2021/10/28 21:05:28;;;;;;;7.15;6.45;;;9.60;99.90;;;;;;7292064;19;2004442;-80
2021/10/28 21:08:13;;;;;;;7.68;5.93;;;9.50;99.90;;;;;;7377763;19;20345;-80
2021/10/28 21:11:36;;;;;;;6.95;6.25;;;9.50;99.90;;;;;;7399434;19;20333;-81
2021/10/28 21:14:27;;;;;;;8.20;6.47;;;9.50;99.90;;;;;;7412768;19;20460;-81
2021/10/28 21:17:19;;;;;;;6.53;5.18;;;9.40;99.90;;;;;;7414561;19;20450;-81
2021/10/28 21:19:50;;;;;;;6.97;5.35;;;9.40;99.90;;;;;;7327551;19;20314;-81
2021/10/28 21:22:57;;;;;;;10.40;6.70;;;9.50;99.90;;;;;;7384884;19;20320;-80
2021/10/28 21:25:48;;;;;;;6.65;5.97;;;9.30;99.90;;;;;;7404630;19;20376;-80
2021/10/28 21:31:37;;;;;;;8.43;6.83;;;9.30;99.90;;;;;;7279274;19;2004413;-80
2021/10/28 21:34:10;;;;;;;8.18;6.15;;;9.30;99.90;;;;;;7275115;19;2004465;-80
2021/10/28 21:36:52;;;;;;;5.57;4.70;;;9.20;99.90;;;;;;7278072;19;2004595;-81
2021/10/28 21:39:32;;;;;;;5.43;4.72;;;9.10;99.90;;;;;;7374462;19;20380;-80
2021/10/28 21:42:08;;;;;;;7.00;6.30;;;9.10;99.90;;;;;;7394981;19;20364;-81
2021/10/28 21:44:47;;;;;;;5.38;4.88;;;9.00;99.90;;;;;;7374283;19;20681;-80
2021/10/28 21:47:35;;;;;;;8.82;6.38;;;9.00;99.90;;;;;;7375747;19;20332;-80
2021/10/28 21:53:39;;;;;;;9.18;6.63;;;8.90;99.90;;;;;;7389331;19;20337;-79
2021/10/28 21:57:08;;;;;;;6.90;5.78;;;8.90;99.90;;;;;;7267883;19;2004651;-81
2021/10/28 22:26:07;;;;;;;5.45;4.95;;;8.40;99.90;;;;;;7268797;19;2004409;-82
2021/10/28 22:32:04;;;;;;;5.70;4.60;;;8.40;99.90;;;;;;7428567;19;20357;-81
2021/10/28 22:34:59;;;;;;;5.47;4.97;;;8.10;99.90;;;;;;7424888;19;20325;-82
2021/10/28 22:43:39;;;;;;;6.18;5.10;;;8.10;99.90;;;;;;7431892;19;20428;-82
2021/10/28 22:46:34;;;;;;;6.68;5.97;;;8.10;99.90;;;;;;7429995;19;20340;-82
2021/10/28 22:49:38;;;;;;;5.30;4.80;;;8.10;99.90;;;;;;7424097;19;20339;-81
2021/10/28 22:52:37;;;;;;;5.30;4.75;;;8.00;99.90;;;;;;7426661;19;20393;-82
2021/10/28 22:55:27;;;;;;;8.05;6.35;;;7.90;99.90;;;;;;7430220;19;20344;-82
2021/10/28 22:58:28;;;;;;;5.63;5.00;;;7.90;99.90;;;;;;7419243;19;20360;-81
2021/10/28 23:01:23;;;;;;;6.50;5.45;;;7.90;99.90;;;;;;7417739;19;20361;-81
2021/10/28 23:04:34;;;;;;;5.25;4.75;;;7.80;99.90;;;;;;7369437;19;20344;-81
2021/10/28 23:23:04;;;;;;;6.15;5.55;;;7.60;99.90;;;;;;7282817;19;2004408;-81
2021/10/28 23:26:13;;;;;;;6.78;6.07;;;7.40;99.90;;;;;;7364148;19;20348;-81
2021/10/28 23:28:45;;;;;;;6.78;5.15;;;7.50;99.90;;;;;;7379867;19;20357;-80
2021/10/28 23:31:13;;;;;;;6.72;6.03;;;7.40;99.90;;;;;;7377075;19;20348;-80
2021/10/28 23:33:39;;;;;;;5.05;4.55;;;7.60;99.90;;;;;;7380653;19;20416;-80
2021/10/28 23:36:06;;;;;;;6.07;5.57;;;7.40;99.90;;;;;;7378880;19;20331;-80
2021/10/28 23:38:35;;;;;;;5.45;4.95;;;7.30;99.90;;;;;;7380682;19;20320;-80
2021/10/28 23:41:01;;;;;;;6.27;5.67;;;7.30;99.90;;;;;;7379711;19;20401;-80
2021/10/28 23:43:29;;;;;;;6.45;5.53;;;7.20;99.90;;;;;;7379088;19;20328;-80
2021/10/28 23:45:55;;;;;;;7.32;6.63;;;7.20;99.90;;;;;;7374382;19;20320;-80
2021/10/28 23:48:22;;;;;;;6.15;5.55;;;7.20;99.90;;;;;;7382987;19;20664;-80
2021/10/28 23:50:49;;;;;;;8.03;6.27;;;7.10;99.90;;;;;;7358992;19;20308;-80
2021/10/28 23:53:15;;;;;;;8.70;7.30;;;7.10;99.90;;;;;;7377561;19;20332;-81
2021/10/28 23:55:41;;;;;;;9.00;7.23;;;7.10;99.90;;;;;;7379689;19;20329;-81
2021/10/28 23:58:16;;;;;;;7.22;5.80;;;7.00;99.90;;;;;;7375038;19;20331;-80
